sensor_id;sensor_type;location;lat;lon;timestamp;temperature;humidity
25554;DHT22;13446;50.926;5.332;2023-01-24T00:00:50;4.30;99.90
25554;DHT22;13446;50.926;5.332;2023-01-24T00:03:16;4.40;99.90
25554;DHT22;13446;50.926;5.332;2023-01-24T00:05:42;4.40;99.90
25554;DHT22;13446;50.926;5.332;2023-01-24T00:08:10;4.50;99.90
25554;DHT22;13446;50.926;5.332;2023-01-24T00:10:38;4.60;99.90
25554;DHT22;13446;50.926;5.332;2023-01-24T00:13:03;4.60;99.90
25554;DHT22;13446;50.926;5.332;2023-01-24T00:15:29;4.60;99.90
25554;DHT22;13446;50.926;5.332;2023-01-24T00:17:56;4.60;99.90
25554;DHT22;13446;50.926;5.332;2023-01-24T00:20:21;4.60;99.90
25554;DHT22;13446;50.926;5.332;2023-01-24T00:22:47;4.50;99.90
25554;DHT22;13446;50.926;5.332;2023-01-24T00:25:12;4.60;99.90
25554;DHT22;13446;50.926;5.332;2023-01-24T00:27:38;4.60;99.90
25554;DHT22;13446;50.926;5.332;2023-01-24T00:30:04;4.70;99.90
25554;DHT22;13446;50.926;5.332;2023-01-24T00:32:30;4.60;99.90
25554;DHT22;13446;50.926;5.332;2023-01-24T00:34:55;4.60;99.90
25554;DHT22;13446;50.926;5.332;2023-01-24T00:37:21;4.60;99.90
25554;DHT22;13446;50.926;5.332;2023-01-24T00:39:46;4.70;99.90
25554;DHT22;13446;50.926;5.332;2023-01-24T00:42:12;4.60;99.90
25554;DHT22;13446;50.926;5.332;2023-01-24T00:44:38;4.60;99.90
25554;DHT22;13446;50.926;5.332;2023-01-24T00:47:04;4.50;99.90
25554;DHT22;13446;50.926;5.332;2023-01-24T00:49:30;4.40;99.90
25554;DHT22;13446;50.926;5.332;2023-01-24T00:51:56;4.50;99.90
25554;DHT22;13446;50.926;5.332;2023-01-24T00:54:21;4.40;99.90
25554;DHT22;13446;50.926;5.332;2023-01-24T00:56:47;4.50;99.90
25554;DHT22;13446;50.926;5.332;2023-01-24T00:59:12;4.30;99.90
25554;DHT22;13446;50.926;5.332;2023-01-24T01:01:39;4.30;99.90
25554;DHT22;13446;50.926;5.332;2023-01-24T01:04:05;4.10;99.90
25554;DHT22;13446;50.926;5.332;2023-01-24T01:06:31;4.20;99.90
25554;DHT22;13446;50.926;5.332;2023-01-24T01:08:56;4.40;99.90
25554;DHT22;13446;50.926;5.332;2023-01-24T01:11:22;4.50;99.90
25554;DHT22;13446;50.926;5.332;2023-01-24T01:13:48;4.60;99.90
25554;DHT22;13446;50.926;5.332;2023-01-24T01:16:14;4.60;99.90
25554;DHT22;13446;50.926;5.332;2023-01-24T01:18:41;4.40;99.90
25554;DHT22;13446;50.926;5.332;2023-01-24T01:21:07;4.50;99.90
25554;DHT22;13446;50.926;5.332;2023-01-24T01:23:32;4.50;99.90
25554;DHT22;13446;50.926;5.332;2023-01-24T01:26:02;4.40;99.90
25554;DHT22;13446;50.926;5.332;2023-01-24T01:28:28;4.40;99.90
25554;DHT22;13446;50.926;5.332;2023-01-24T01:30:54;4.40;99.90
25554;DHT22;13446;50.926;5.332;2023-01-24T01:33:20;4.50;99.90
25554;DHT22;13446;50.926;5.332;2023-01-24T01:35:46;4.60;99.90
25554;DHT22;13446;50.926;5.332;2023-01-24T01:38:12;4.60;99.90
25554;DHT22;13446;50.926;5.332;2023-01-24T01:40:38;4.40;99.90
25554;DHT22;13446;50.926;5.332;2023-01-24T01:43:05;4.40;99.90
25554;DHT22;13446;50.926;5.332;2023-01-24T01:47:56;4.50;99.90
25554;DHT22;13446;50.926;5.332;2023-01-24T01:50:32;4.40;99.90
25554;DHT22;13446;50.926;5.332;2023-01-24T01:52:59;4.50;99.90
25554;DHT22;13446;50.926;5.332;2023-01-24T01:55:26;4.50;99.90
25554;DHT22;13446;50.926;5.332;2023-01-24T01:57:52;4.50;99.90
25554;DHT22;13446;50.926;5.332;2023-01-24T02:00:19;4.40;99.90
25554;DHT22;13446;50.926;5.332;2023-01-24T02:02:50;4.50;99.90
25554;DHT22;13446;50.926;5.332;2023-01-24T02:05:17;4.50;99.90
25554;DHT22;13446;50.926;5.332;2023-01-24T02:07:46;4.60;99.90
25554;DHT22;13446;50.926;5.332;2023-01-24T02:10:16;4.50;99.90
25554;DHT22;13446;50.926;5.332;2023-01-24T02:12:43;4.50;99.90
25554;DHT22;13446;50.926;5.332;2023-01-24T02:15:11;4.60;99.90
25554;DHT22;13446;50.926;5.332;2023-01-24T02:17:56;4.70;99.90
25554;DHT22;13446;50.926;5.332;2023-01-24T02:20:36;4.60;99.90
25554;DHT22;13446;50.926;5.332;2023-01-24T02:28:03;4.60;99.90
25554;DHT22;13446;50.926;5.332;2023-01-24T02:30:30;4.50;99.90
25554;DHT22;13446;50.926;5.332;2023-01-24T02:32:56;4.40;99.90
25554;DHT22;13446;50.926;5.332;2023-01-24T02:37:50;4.50;99.90
25554;DHT22;13446;50.926;5.332;2023-01-24T02:40:16;4.50;99.90
25554;DHT22;13446;50.926;5.332;2023-01-24T02:42:42;4.40;99.90
25554;DHT22;13446;50.926;5.332;2023-01-24T02:45:17;4.50;99.90
25554;DHT22;13446;50.926;5.332;2023-01-24T02:47:45;4.50;99.90
25554;DHT22;13446;50.926;5.332;2023-01-24T02:50:11;4.50;99.90
25554;DHT22;13446;50.926;5.332;2023-01-24T02:52:37;4.60;99.90
25554;DHT22;13446;50.926;5.332;2023-01-24T02:55:21;4.50;99.90
25554;DHT22;13446;50.926;5.332;2023-01-24T02:57:47;4.50;99.90
25554;DHT22;13446;50.926;5.332;2023-01-24T03:00:34;4.60;99.90
25554;DHT22;13446;50.926;5.332;2023-01-24T03:03:00;4.60;99.90
25554;DHT22;13446;50.926;5.332;2023-01-24T03:05:26;4.60;99.90
25554;DHT22;13446;50.926;5.332;2023-01-24T03:08:08;4.50;99.90
25554;DHT22;13446;50.926;5.332;2023-01-24T03:10:33;4.50;99.90
25554;DHT22;13446;50.926;5.332;2023-01-24T03:13:00;4.40;99.90
25554;DHT22;13446;50.926;5.332;2023-01-24T03:15:45;4.30;99.90
25554;DHT22;13446;50.926;5.332;2023-01-24T03:18:29;4.40;99.90
25554;DHT22;13446;50.926;5.332;2023-01-24T03:21:13;4.40;99.90
25554;DHT22;13446;50.926;5.332;2023-01-24T03:23:57;4.40;99.90
25554;DHT22;13446;50.926;5.332;2023-01-24T03:26:41;4.50;99.90
25554;DHT22;13446;50.926;5.332;2023-01-24T03:29:26;4.50;99.90
25554;DHT22;13446;50.926;5.332;2023-01-24T03:32:10;4.50;99.90
25554;DHT22;13446;50.926;5.332;2023-01-24T03:34:54;4.50;99.90
25554;DHT22;13446;50.926;5.332;2023-01-24T03:37:21;4.40;99.90
25554;DHT22;13446;50.926;5.332;2023-01-24T03:40:07;4.60;99.90
25554;DHT22;13446;50.926;5.332;2023-01-24T03:42:33;4.50;99.90
25554;DHT22;13446;50.926;5.332;2023-01-24T03:45:00;4.50;99.90
25554;DHT22;13446;50.926;5.332;2023-01-24T03:47:25;4.50;99.90
25554;DHT22;13446;50.926;5.332;2023-01-24T03:49:51;4.50;99.90
25554;DHT22;13446;50.926;5.332;2023-01-24T03:52:35;4.40;99.90
25554;DHT22;13446;50.926;5.332;2023-01-24T03:55:01;4.40;99.90
25554;DHT22;13446;50.926;5.332;2023-01-24T03:57:27;4.40;99.90
25554;DHT22;13446;50.926;5.332;2023-01-24T03:59:53;4.40;99.90
25554;DHT22;13446;50.926;5.332;2023-01-24T04:02:18;4.40;99.90
25554;DHT22;13446;50.926;5.332;2023-01-24T04:04:44;4.40;99.90
25554;DHT22;13446;50.926;5.332;2023-01-24T04:07:28;4.30;99.90
25554;DHT22;13446;50.926;5.332;2023-01-24T04:09:54;4.30;99.90
25554;DHT22;13446;50.926;5.332;2023-01-24T04:12:20;4.30;99.90
25554;DHT22;13446;50.926;5.332;2023-01-24T04:14:45;4.20;99.90
25554;DHT22;13446;50.926;5.332;2023-01-24T04:17:11;4.30;99.90
25554;DHT22;13446;50.926;5.332;2023-01-24T04:19:36;4.30;99.90
25554;DHT22;13446;50.926;5.332;2023-01-24T04:22:02;4.30;99.90
25554;DHT22;13446;50.926;5.332;2023-01-24T04:24:27;4.30;99.90
25554;DHT22;13446;50.926;5.332;2023-01-24T04:26:53;4.40;99.90
25554;DHT22;13446;50.926;5.332;2023-01-24T04:29:18;4.30;99.90
25554;DHT22;13446;50.926;5.332;2023-01-24T04:31:45;4.20;99.90
25554;DHT22;13446;50.926;5.332;2023-01-24T04:34:11;4.10;99.90
25554;DHT22;13446;50.926;5.332;2023-01-24T04:36:37;4.20;99.90
25554;DHT22;13446;50.926;5.332;2023-01-24T04:39:02;4.20;99.90
25554;DHT22;13446;50.926;5.332;2023-01-24T04:41:28;4.20;99.90
25554;DHT22;13446;50.926;5.332;2023-01-24T04:43:53;4.20;99.90
25554;DHT22;13446;50.926;5.332;2023-01-24T04:46:20;4.10;99.90
25554;DHT22;13446;50.926;5.332;2023-01-24T04:48:45;4.20;99.90
25554;DHT22;13446;50.926;5.332;2023-01-24T04:51:11;4.20;99.90
25554;DHT22;13446;50.926;5.332;2023-01-24T04:53:40;4.40;99.90
25554;DHT22;13446;50.926;5.332;2023-01-24T04:56:06;4.30;99.90
25554;DHT22;13446;50.926;5.332;2023-01-24T04:58:32;4.30;99.90
25554;DHT22;13446;50.926;5.332;2023-01-24T05:00:58;4.20;99.90
25554;DHT22;13446;50.926;5.332;2023-01-24T05:03:23;4.20;99.90
25554;DHT22;13446;50.926;5.332;2023-01-24T05:05:50;4.10;99.90
25554;DHT22;13446;50.926;5.332;2023-01-24T05:08:15;4.10;99.90
25554;DHT22;13446;50.926;5.332;2023-01-24T05:10:41;4.10;99.90
25554;DHT22;13446;50.926;5.332;2023-01-24T05:13:06;4.10;99.90
25554;DHT22;13446;50.926;5.332;2023-01-24T05:15:32;4.10;99.90
25554;DHT22;13446;50.926;5.332;2023-01-24T05:17:57;4.10;99.90
25554;DHT22;13446;50.926;5.332;2023-01-24T05:20:23;4.10;99.90
25554;DHT22;13446;50.926;5.332;2023-01-24T05:22:49;4.00;99.90
25554;DHT22;13446;50.926;5.332;2023-01-24T05:25:14;3.80;99.90
25554;DHT22;13446;50.926;5.332;2023-01-24T05:27:40;4.00;99.90
25554;DHT22;13446;50.926;5.332;2023-01-24T05:30:06;3.90;99.90
25554;DHT22;13446;50.926;5.332;2023-01-24T05:32:32;4.00;99.90
25554;DHT22;13446;50.926;5.332;2023-01-24T05:34:57;3.90;99.90
25554;DHT22;13446;50.926;5.332;2023-01-24T05:37:23;3.90;99.90
25554;DHT22;13446;50.926;5.332;2023-01-24T05:39:48;3.90;99.90
25554;DHT22;13446;50.926;5.332;2023-01-24T05:42:14;3.80;99.90
25554;DHT22;13446;50.926;5.332;2023-01-24T05:44:39;3.80;99.90
25554;DHT22;13446;50.926;5.332;2023-01-24T05:47:05;3.80;99.90
25554;DHT22;13446;50.926;5.332;2023-01-24T05:49:30;3.80;99.90
25554;DHT22;13446;50.926;5.332;2023-01-24T05:51:56;3.80;99.90
25554;DHT22;13446;50.926;5.332;2023-01-24T05:54:21;3.80;99.90
25554;DHT22;13446;50.926;5.332;2023-01-24T05:56:47;3.90;99.90
25554;DHT22;13446;50.926;5.332;2023-01-24T05:59:12;3.70;99.90
25554;DHT22;13446;50.926;5.332;2023-01-24T06:01:39;3.70;99.90
25554;DHT22;13446;50.926;5.332;2023-01-24T06:04:04;3.80;99.90
25554;DHT22;13446;50.926;5.332;2023-01-24T06:06:30;3.80;99.90
25554;DHT22;13446;50.926;5.332;2023-01-24T06:08:56;4.00;99.90
25554;DHT22;13446;50.926;5.332;2023-01-24T06:11:22;4.00;99.90
25554;DHT22;13446;50.926;5.332;2023-01-24T06:13:49;4.00;99.90
25554;DHT22;13446;50.926;5.332;2023-01-24T06:16:18;4.00;99.90
25554;DHT22;13446;50.926;5.332;2023-01-24T06:18:44;4.00;99.90
25554;DHT22;13446;50.926;5.332;2023-01-24T06:21:18;4.10;99.90
25554;DHT22;13446;50.926;5.332;2023-01-24T06:23:49;4.10;99.90
25554;DHT22;13446;50.926;5.332;2023-01-24T06:26:15;4.10;99.90
25554;DHT22;13446;50.926;5.332;2023-01-24T06:28:41;4.20;99.90
25554;DHT22;13446;50.926;5.332;2023-01-24T06:36:23;3.90;99.90
25554;DHT22;13446;50.926;5.332;2023-01-24T06:38:51;3.80;99.90
25554;DHT22;13446;50.926;5.332;2023-01-24T06:41:16;3.70;99.90
25554;DHT22;13446;50.926;5.332;2023-01-24T06:43:43;3.70;99.90
25554;DHT22;13446;50.926;5.332;2023-01-24T06:46:09;3.70;99.90
25554;DHT22;13446;50.926;5.332;2023-01-24T06:48:38;3.80;99.90
25554;DHT22;13446;50.926;5.332;2023-01-24T06:51:04;3.90;99.90
25554;DHT22;13446;50.926;5.332;2023-01-24T06:53:31;4.00;99.90
25554;DHT22;13446;50.926;5.332;2023-01-24T06:55:57;4.10;99.90
25554;DHT22;13446;50.926;5.332;2023-01-24T06:58:23;3.90;99.90
25554;DHT22;13446;50.926;5.332;2023-01-24T07:00:51;3.90;99.90
25554;DHT22;13446;50.926;5.332;2023-01-24T07:03:17;4.00;99.90
25554;DHT22;13446;50.926;5.332;2023-01-24T07:05:48;3.90;99.90
25554;DHT22;13446;50.926;5.332;2023-01-24T07:08:14;4.00;99.90
25554;DHT22;13446;50.926;5.332;2023-01-24T07:10:40;3.90;99.90
25554;DHT22;13446;50.926;5.332;2023-01-24T07:13:05;3.90;99.90
25554;DHT22;13446;50.926;5.332;2023-01-24T07:15:31;3.80;99.90
25554;DHT22;13446;50.926;5.332;2023-01-24T07:18:07;3.80;99.90
25554;DHT22;13446;50.926;5.332;2023-01-24T07:20:33;3.80;99.90
25554;DHT22;13446;50.926;5.332;2023-01-24T07:22:58;3.70;99.90
25554;DHT22;13446;50.926;5.332;2023-01-24T07:25:25;3.70;99.90
25554;DHT22;13446;50.926;5.332;2023-01-24T07:27:51;3.70;99.90
25554;DHT22;13446;50.926;5.332;2023-01-24T07:30:17;3.70;99.90
25554;DHT22;13446;50.926;5.332;2023-01-24T07:32:43;3.70;99.90
25554;DHT22;13446;50.926;5.332;2023-01-24T07:35:08;3.70;99.90
25554;DHT22;13446;50.926;5.332;2023-01-24T07:37:34;3.80;99.90
25554;DHT22;13446;50.926;5.332;2023-01-24T07:39:59;3.70;99.90
25554;DHT22;13446;50.926;5.332;2023-01-24T07:42:26;3.80;99.90
25554;DHT22;13446;50.926;5.332;2023-01-24T07:44:52;3.80;99.90
25554;DHT22;13446;50.926;5.332;2023-01-24T07:47:20;3.80;99.90
25554;DHT22;13446;50.926;5.332;2023-01-24T07:49:46;3.80;99.90
25554;DHT22;13446;50.926;5.332;2023-01-24T07:52:11;3.60;99.90
25554;DHT22;13446;50.926;5.332;2023-01-24T07:54:37;3.60;99.90
25554;DHT22;13446;50.926;5.332;2023-01-24T07:57:02;3.60;99.90
25554;DHT22;13446;50.926;5.332;2023-01-24T07:59:28;3.70;99.90
25554;DHT22;13446;50.926;5.332;2023-01-24T08:01:53;3.80;99.90
25554;DHT22;13446;50.926;5.332;2023-01-24T08:04:19;3.90;99.90
25554;DHT22;13446;50.926;5.332;2023-01-24T08:06:44;3.80;99.90
25554;DHT22;13446;50.926;5.332;2023-01-24T08:09:28;3.80;99.90
25554;DHT22;13446;50.926;5.332;2023-01-24T08:11:55;3.70;99.90
25554;DHT22;13446;50.926;5.332;2023-01-24T08:14:20;3.60;99.90
25554;DHT22;13446;50.926;5.332;2023-01-24T08:16:47;3.70;99.90
25554;DHT22;13446;50.926;5.332;2023-01-24T08:19:13;3.70;99.90
25554;DHT22;13446;50.926;5.332;2023-01-24T08:21:38;3.70;99.90
25554;DHT22;13446;50.926;5.332;2023-01-24T08:24:04;3.70;99.90
25554;DHT22;13446;50.926;5.332;2023-01-24T08:26:30;3.70;99.90
25554;DHT22;13446;50.926;5.332;2023-01-24T08:28:55;3.70;99.90
25554;DHT22;13446;50.926;5.332;2023-01-24T08:31:22;3.70;99.90
25554;DHT22;13446;50.926;5.332;2023-01-24T08:33:47;3.60;99.90
25554;DHT22;13446;50.926;5.332;2023-01-24T08:36:14;3.60;99.90
25554;DHT22;13446;50.926;5.332;2023-01-24T08:38:40;3.60;99.90
25554;DHT22;13446;50.926;5.332;2023-01-24T08:41:06;3.60;99.90
25554;DHT22;13446;50.926;5.332;2023-01-24T08:43:32;3.80;99.90
25554;DHT22;13446;50.926;5.332;2023-01-24T08:45:58;3.80;99.90
25554;DHT22;13446;50.926;5.332;2023-01-24T08:48:23;3.80;99.90
25554;DHT22;13446;50.926;5.332;2023-01-24T08:50:49;3.70;99.90
25554;DHT22;13446;50.926;5.332;2023-01-24T08:53:16;3.80;99.90
25554;DHT22;13446;50.926;5.332;2023-01-24T08:55:42;3.80;99.90
25554;DHT22;13446;50.926;5.332;2023-01-24T08:58:08;3.90;99.90
25554;DHT22;13446;50.926;5.332;2023-01-24T09:00:33;3.90;99.90
25554;DHT22;13446;50.926;5.332;2023-01-24T09:02:59;3.80;99.90
25554;DHT22;13446;50.926;5.332;2023-01-24T09:05:29;3.80;99.90
25554;DHT22;13446;50.926;5.332;2023-01-24T09:07:55;3.70;99.90
25554;DHT22;13446;50.926;5.332;2023-01-24T09:10:20;3.80;99.90
25554;DHT22;13446;50.926;5.332;2023-01-24T09:12:46;3.70;99.90
25554;DHT22;13446;50.926;5.332;2023-01-24T09:15:12;3.70;99.90
25554;DHT22;13446;50.926;5.332;2023-01-24T09:17:38;3.80;99.90
25554;DHT22;13446;50.926;5.332;2023-01-24T09:20:05;3.90;99.90
25554;DHT22;13446;50.926;5.332;2023-01-24T09:22:31;4.00;99.90
25554;DHT22;13446;50.926;5.332;2023-01-24T09:24:56;4.00;99.90
25554;DHT22;13446;50.926;5.332;2023-01-24T09:27:22;4.00;99.90
25554;DHT22;13446;50.926;5.332;2023-01-24T09:29:47;4.00;99.90
25554;DHT22;13446;50.926;5.332;2023-01-24T09:32:13;4.10;99.90
25554;DHT22;13446;50.926;5.332;2023-01-24T09:34:38;4.00;99.90
25554;DHT22;13446;50.926;5.332;2023-01-24T09:37:11;4.10;99.90
25554;DHT22;13446;50.926;5.332;2023-01-24T09:39:36;4.10;99.90
25554;DHT22;13446;50.926;5.332;2023-01-24T09:42:13;4.10;99.90
25554;DHT22;13446;50.926;5.332;2023-01-24T09:47:13;4.10;99.90
25554;DHT22;13446;50.926;5.332;2023-01-24T09:49:41;4.30;99.90
25554;DHT22;13446;50.926;5.332;2023-01-24T09:52:10;4.30;99.90
25554;DHT22;13446;50.926;5.332;2023-01-24T09:54:44;4.40;99.90
25554;DHT22;13446;50.926;5.332;2023-01-24T09:57:19;4.50;99.90
25554;DHT22;13446;50.926;5.332;2023-01-24T09:59:48;4.50;99.90
25554;DHT22;13446;50.926;5.332;2023-01-24T10:02:18;4.40;99.90
25554;DHT22;13446;50.926;5.332;2023-01-24T10:04:44;4.40;99.90
25554;DHT22;13446;50.926;5.332;2023-01-24T10:25:14;4.60;99.90
25554;DHT22;13446;50.926;5.332;2023-01-24T10:27:43;4.40;99.90
25554;DHT22;13446;50.926;5.332;2023-01-24T10:30:22;4.40;99.90
25554;DHT22;13446;50.926;5.332;2023-01-24T10:32:52;4.50;99.90
25554;DHT22;13446;50.926;5.332;2023-01-24T10:35:36;4.50;99.90
25554;DHT22;13446;50.926;5.332;2023-01-24T10:38:05;4.40;99.90
25554;DHT22;13446;50.926;5.332;2023-01-24T10:40:31;4.40;99.90
25554;DHT22;13446;50.926;5.332;2023-01-24T10:42:56;4.50;99.90
25554;DHT22;13446;50.926;5.332;2023-01-24T10:48:00;4.60;99.90
25554;DHT22;13446;50.926;5.332;2023-01-24T10:50:34;4.70;99.90
25554;DHT22;13446;50.926;5.332;2023-01-24T10:53:33;4.50;99.90
25554;DHT22;13446;50.926;5.332;2023-01-24T10:55:59;4.40;99.90
25554;DHT22;13446;50.926;5.332;2023-01-24T10:58:26;4.60;99.90
25554;DHT22;13446;50.926;5.332;2023-01-24T11:00:58;4.80;99.90
25554;DHT22;13446;50.926;5.332;2023-01-24T11:03:28;4.80;99.90
25554;DHT22;13446;50.926;5.332;2023-01-24T11:06:02;4.90;99.90
25554;DHT22;13446;50.926;5.332;2023-01-24T11:08:34;4.90;99.90
25554;DHT22;13446;50.926;5.332;2023-01-24T11:11:02;5.10;99.90
25554;DHT22;13446;50.926;5.332;2023-01-24T11:13:41;5.20;99.90
25554;DHT22;13446;50.926;5.332;2023-01-24T11:18:48;5.00;99.90
25554;DHT22;13446;50.926;5.332;2023-01-24T11:21:16;5.10;99.90
25554;DHT22;13446;50.926;5.332;2023-01-24T11:23:43;5.00;99.90
25554;DHT22;13446;50.926;5.332;2023-01-24T11:26:30;4.80;99.90
25554;DHT22;13446;50.926;5.332;2023-01-24T11:28:55;4.90;99.90
25554;DHT22;13446;50.926;5.332;2023-01-24T11:31:26;5.00;99.90
25554;DHT22;13446;50.926;5.332;2023-01-24T11:42:04;5.00;99.90
25554;DHT22;13446;50.926;5.332;2023-01-24T11:47:08;5.10;99.90
25554;DHT22;13446;50.926;5.332;2023-01-24T12:05:52;5.30;99.90
25554;DHT22;13446;50.926;5.332;2023-01-24T12:11:12;5.50;99.90
25554;DHT22;13446;50.926;5.332;2023-01-24T12:13:48;5.30;99.90
25554;DHT22;13446;50.926;5.332;2023-01-24T12:16:36;5.30;99.90
25554;DHT22;13446;50.926;5.332;2023-01-24T12:22:16;5.40;99.90
25554;DHT22;13446;50.926;5.332;2023-01-24T12:24:42;5.40;99.90
25554;DHT22;13446;50.926;5.332;2023-01-24T12:27:14;5.30;99.90
25554;DHT22;13446;50.926;5.332;2023-01-24T12:29:44;5.30;99.90
25554;DHT22;13446;50.926;5.332;2023-01-24T12:34:52;5.50;99.90
25554;DHT22;13446;50.926;5.332;2023-01-24T12:39:59;5.60;99.90
25554;DHT22;13446;50.926;5.332;2023-01-24T12:45:20;5.80;99.90
25554;DHT22;13446;50.926;5.332;2023-01-24T12:47:48;5.70;99.90
25554;DHT22;13446;50.926;5.332;2023-01-24T12:50:24;5.70;99.90
25554;DHT22;13446;50.926;5.332;2023-01-24T12:55:41;5.50;99.90
25554;DHT22;13446;50.926;5.332;2023-01-24T12:58:18;5.60;99.90
25554;DHT22;13446;50.926;5.332;2023-01-24T13:06:00;5.40;99.90
25554;DHT22;13446;50.926;5.332;2023-01-24T13:08:29;5.50;99.90
25554;DHT22;13446;50.926;5.332;2023-01-24T13:14:01;5.50;99.90
25554;DHT22;13446;50.926;5.332;2023-01-24T13:18:52;5.20;99.90
25554;DHT22;13446;50.926;5.332;2023-01-24T13:21:21;5.10;99.90
25554;DHT22;13446;50.926;5.332;2023-01-24T13:24:12;4.90;99.90
25554;DHT22;13446;50.926;5.332;2023-01-24T13:26:57;5.20;99.90
25554;DHT22;13446;50.926;5.332;2023-01-24T13:32:11;4.90;99.90
25554;DHT22;13446;50.926;5.332;2023-01-24T13:34:46;4.70;99.90
25554;DHT22;13446;50.926;5.332;2023-01-24T13:37:20;4.70;99.90
25554;DHT22;13446;50.926;5.332;2023-01-24T13:39:46;5.00;99.90
25554;DHT22;13446;50.926;5.332;2023-01-24T13:42:23;5.00;99.90
25554;DHT22;13446;50.926;5.332;2023-01-24T13:44:49;5.10;99.90
25554;DHT22;13446;50.926;5.332;2023-01-24T13:54:56;4.80;99.90
25554;DHT22;13446;50.926;5.332;2023-01-24T13:57:31;4.80;99.90
25554;DHT22;13446;50.926;5.332;2023-01-24T14:05:02;4.60;99.90
25554;DHT22;13446;50.926;5.332;2023-01-24T14:07:29;4.60;99.90
25554;DHT22;13446;50.926;5.332;2023-01-24T14:09:59;4.60;99.90
25554;DHT22;13446;50.926;5.332;2023-01-24T14:12:24;4.60;99.90
25554;DHT22;13446;50.926;5.332;2023-01-24T14:15:00;4.50;99.90
25554;DHT22;13446;50.926;5.332;2023-01-24T14:20:20;4.60;99.90
25554;DHT22;13446;50.926;5.332;2023-01-24T14:22:46;4.70;99.90
25554;DHT22;13446;50.926;5.332;2023-01-24T14:27:52;4.70;99.90
25554;DHT22;13446;50.926;5.332;2023-01-24T14:30:27;4.90;99.90
25554;DHT22;13446;50.926;5.332;2023-01-24T14:33:01;4.80;99.90
25554;DHT22;13446;50.926;5.332;2023-01-24T14:35:29;4.80;99.90
25554;DHT22;13446;50.926;5.332;2023-01-24T14:38:18;4.80;99.90
25554;DHT22;13446;50.926;5.332;2023-01-24T14:40:42;4.70;99.90
25554;DHT22;13446;50.926;5.332;2023-01-24T14:43:10;4.60;99.90
25554;DHT22;13446;50.926;5.332;2023-01-24T14:45:37;4.90;99.90
25554;DHT22;13446;50.926;5.332;2023-01-24T14:48:07;5.00;99.90
25554;DHT22;13446;50.926;5.332;2023-01-24T14:50:34;4.90;99.90
25554;DHT22;13446;50.926;5.332;2023-01-24T14:53:01;4.80;99.90
25554;DHT22;13446;50.926;5.332;2023-01-24T14:57:55;4.50;99.90
25554;DHT22;13446;50.926;5.332;2023-01-24T15:00:21;4.40;99.90
25554;DHT22;13446;50.926;5.332;2023-01-24T15:02:51;4.30;99.90
25554;DHT22;13446;50.926;5.332;2023-01-24T15:05:30;4.20;99.90
25554;DHT22;13446;50.926;5.332;2023-01-24T15:07:56;4.20;99.90
25554;DHT22;13446;50.926;5.332;2023-01-24T15:10:23;4.20;99.90
25554;DHT22;13446;50.926;5.332;2023-01-24T15:12:51;4.20;99.90
25554;DHT22;13446;50.926;5.332;2023-01-24T15:15:17;4.40;99.90
25554;DHT22;13446;50.926;5.332;2023-01-24T15:17:44;4.40;99.90
25554;DHT22;13446;50.926;5.332;2023-01-24T15:20:13;4.20;99.90
25554;DHT22;13446;50.926;5.332;2023-01-24T15:22:40;4.40;99.90
25554;DHT22;13446;50.926;5.332;2023-01-24T15:25:19;4.40;99.90
25554;DHT22;13446;50.926;5.332;2023-01-24T15:27:45;4.60;99.90
25554;DHT22;13446;50.926;5.332;2023-01-24T15:30:13;4.50;99.90
25554;DHT22;13446;50.926;5.332;2023-01-24T15:38:12;4.40;99.90
25554;DHT22;13446;50.926;5.332;2023-01-24T15:40:50;4.20;99.90
25554;DHT22;13446;50.926;5.332;2023-01-24T15:46:05;4.30;99.90
25554;DHT22;13446;50.926;5.332;2023-01-24T15:49:00;4.20;99.90
25554;DHT22;13446;50.926;5.332;2023-01-24T15:51:35;4.00;99.90
25554;DHT22;13446;50.926;5.332;2023-01-24T15:54:01;3.90;99.90
25554;DHT22;13446;50.926;5.332;2023-01-24T15:56:27;4.00;99.90
25554;DHT22;13446;50.926;5.332;2023-01-24T15:58:53;4.00;99.90
25554;DHT22;13446;50.926;5.332;2023-01-24T16:01:19;4.10;99.90
25554;DHT22;13446;50.926;5.332;2023-01-24T16:03:45;4.00;99.90
25554;DHT22;13446;50.926;5.332;2023-01-24T16:06:10;4.00;99.90
25554;DHT22;13446;50.926;5.332;2023-01-24T16:08:36;4.00;99.90
25554;DHT22;13446;50.926;5.332;2023-01-24T16:11:02;4.00;99.90
25554;DHT22;13446;50.926;5.332;2023-01-24T16:13:47;3.80;99.90
25554;DHT22;13446;50.926;5.332;2023-01-24T16:16:13;3.90;99.90
25554;DHT22;13446;50.926;5.332;2023-01-24T16:18:39;3.80;99.90
25554;DHT22;13446;50.926;5.332;2023-01-24T16:21:07;3.80;99.90
25554;DHT22;13446;50.926;5.332;2023-01-24T16:23:42;3.80;99.90
25554;DHT22;13446;50.926;5.332;2023-01-24T16:26:14;3.80;99.90
25554;DHT22;13446;50.926;5.332;2023-01-24T16:28:41;3.80;99.90
25554;DHT22;13446;50.926;5.332;2023-01-24T16:31:07;3.90;99.90
25554;DHT22;13446;50.926;5.332;2023-01-24T16:33:33;3.80;99.90
25554;DHT22;13446;50.926;5.332;2023-01-24T16:35:58;3.70;99.90
25554;DHT22;13446;50.926;5.332;2023-01-24T16:38:24;3.70;99.90
25554;DHT22;13446;50.926;5.332;2023-01-24T16:40:50;3.80;99.90
25554;DHT22;13446;50.926;5.332;2023-01-24T16:43:19;3.70;99.90
25554;DHT22;13446;50.926;5.332;2023-01-24T16:45:45;3.80;99.90
25554;DHT22;13446;50.926;5.332;2023-01-24T16:48:12;3.80;99.90
25554;DHT22;13446;50.926;5.332;2023-01-24T16:50:47;3.80;99.90
25554;DHT22;13446;50.926;5.332;2023-01-24T16:53:13;3.80;99.90
25554;DHT22;13446;50.926;5.332;2023-01-24T16:55:39;3.60;99.90
25554;DHT22;13446;50.926;5.332;2023-01-24T16:58:06;3.70;99.90
25554;DHT22;13446;50.926;5.332;2023-01-24T17:00:32;3.80;99.90
25554;DHT22;13446;50.926;5.332;2023-01-24T17:02:58;3.80;99.90
25554;DHT22;13446;50.926;5.332;2023-01-24T17:05:27;3.90;99.90
25554;DHT22;13446;50.926;5.332;2023-01-24T17:07:53;4.00;99.90
25554;DHT22;13446;50.926;5.332;2023-01-24T17:10:19;3.90;99.90
25554;DHT22;13446;50.926;5.332;2023-01-24T17:12:44;3.90;99.90
25554;DHT22;13446;50.926;5.332;2023-01-24T17:15:10;3.90;99.90
25554;DHT22;13446;50.926;5.332;2023-01-24T17:17:36;4.00;99.90
25554;DHT22;13446;50.926;5.332;2023-01-24T17:20:02;4.00;99.90
25554;DHT22;13446;50.926;5.332;2023-01-24T17:22:28;4.00;99.90
25554;DHT22;13446;50.926;5.332;2023-01-24T17:24:54;3.90;99.90
25554;DHT22;13446;50.926;5.332;2023-01-24T17:27:20;3.90;99.90
25554;DHT22;13446;50.926;5.332;2023-01-24T17:29:45;4.00;99.90
25554;DHT22;13446;50.926;5.332;2023-01-24T17:32:11;4.00;99.90
25554;DHT22;13446;50.926;5.332;2023-01-24T17:34:36;4.00;99.90
25554;DHT22;13446;50.926;5.332;2023-01-24T17:37:02;4.00;99.90
25554;DHT22;13446;50.926;5.332;2023-01-24T17:39:28;3.90;99.90
25554;DHT22;13446;50.926;5.332;2023-01-24T17:41:53;3.90;99.90
25554;DHT22;13446;50.926;5.332;2023-01-24T17:44:19;4.00;99.90
25554;DHT22;13446;50.926;5.332;2023-01-24T17:46:45;3.80;99.90
25554;DHT22;13446;50.926;5.332;2023-01-24T17:49:11;3.80;99.90
25554;DHT22;13446;50.926;5.332;2023-01-24T17:51:37;4.00;99.90
25554;DHT22;13446;50.926;5.332;2023-01-24T17:54:05;3.90;99.90
25554;DHT22;13446;50.926;5.332;2023-01-24T17:56:31;3.90;99.90
25554;DHT22;13446;50.926;5.332;2023-01-24T17:58:59;3.90;99.90